createdAt,value
2017-11-17T00:01:32.001Z,18.90
2017-11-17T00:04:00.391Z,20.07
2017-11-17T00:06:28.821Z,19.10
2017-11-17T00:08:56.433Z,20.10
2017-11-17T00:11:24.119Z,22.33
2017-11-17T00:13:51.730Z,23.23
2017-11-17T00:16:20.117Z,21.67
2017-11-17T00:18:48.556Z,20.30
2017-11-17T00:21:16.188Z,21.30
2017-11-17T00:23:43.952Z,21.80
2017-11-17T00:26:11.576Z,22.30
2017-11-17T00:28:39.952Z,21.87
2017-11-17T00:31:08.364Z,20.10
2017-11-17T00:33:35.989Z,21.00
2017-11-17T00:36:04.492Z,20.07
2017-11-17T00:38:32.110Z,20.43
2017-11-17T00:40:59.730Z,21.80
2017-11-17T00:43:27.427Z,20.20
2017-11-17T00:45:55.043Z,20.80
2017-11-17T00:48:22.723Z,18.53
2017-11-17T00:50:50.356Z,19.17
2017-11-17T00:53:17.969Z,19.90
2017-11-17T00:55:45.612Z,19.80
2017-11-17T00:58:13.228Z,19.20
2017-11-17T01:00:40.918Z,19.00
2017-11-17T01:03:08.534Z,19.90
2017-11-17T01:05:36.925Z,19.53
2017-11-17T01:08:04.585Z,18.83
2017-11-17T01:10:32.218Z,20.50
2017-11-17T01:13:00.729Z,18.53
2017-11-17T01:15:28.358Z,20.50
2017-11-17T01:17:56.754Z,20.57
2017-11-17T01:20:24.404Z,21.67
2017-11-17T01:22:52.786Z,20.30
2017-11-17T01:25:21.203Z,23.30
2017-11-17T01:27:48.832Z,20.63
2017-11-17T01:30:16.933Z,21.90
2017-11-17T01:32:44.557Z,23.27
2017-11-17T01:35:12.940Z,21.70
2017-11-17T01:37:40.602Z,22.63
2017-11-17T01:40:08.232Z,21.50
2017-11-17T01:42:36.667Z,20.20
2017-11-17T01:45:04.322Z,21.40
2017-11-17T01:47:32.003Z,21.87
2017-11-17T01:49:59.669Z,21.30
2017-11-17T01:52:27.310Z,20.00
2017-11-17T01:54:55.005Z,21.30
2017-11-17T01:57:22.704Z,21.67
2017-11-17T01:59:50.396Z,19.27
2017-11-17T02:02:20.804Z,20.67
2017-11-17T02:04:48.647Z,20.50
2017-11-17T02:07:16.284Z,19.67
2017-11-17T02:09:44.704Z,21.63
2017-11-17T02:12:12.386Z,19.23
2017-11-17T02:14:40.128Z,19.87
2017-11-17T02:17:07.784Z,21.30
2017-11-17T02:19:35.521Z,20.00
2017-11-17T02:22:04.008Z,19.07
2017-11-17T02:24:31.719Z,21.00
2017-11-17T02:26:59.428Z,18.03
2017-11-17T02:29:27.909Z,21.47
2017-11-17T02:31:55.606Z,17.73
2017-11-17T02:34:23.322Z,18.67
2017-11-17T02:36:51.754Z,16.80
2017-11-17T02:39:19.493Z,15.60
2017-11-17T02:41:47.212Z,17.80
2017-11-17T02:44:15.716Z,17.87
2017-11-17T02:46:43.403Z,16.37
2017-11-17T02:49:11.101Z,16.43
2017-11-17T02:51:38.829Z,16.33
2017-11-17T02:54:06.517Z,14.73
2017-11-17T02:56:34.281Z,16.53
2017-11-17T02:59:01.986Z,15.50
2017-11-17T03:01:29.648Z,14.13
2017-11-17T03:03:57.338Z,12.37
2017-11-17T03:06:25.067Z,12.60
2017-11-17T03:08:52.817Z,11.10
2017-11-17T03:11:21.239Z,12.30
2017-11-17T03:13:48.875Z,11.73
2017-11-17T03:16:16.548Z,12.17
2017-11-17T03:18:44.172Z,11.07
2017-11-17T03:21:12.624Z,10.47
2017-11-17T03:23:40.262Z,11.30
2017-11-17T03:26:08.009Z,10.53
2017-11-17T03:28:35.696Z,13.37
2017-11-17T03:31:03.377Z,14.07
2017-11-17T03:33:31.852Z,15.97
2017-11-17T03:35:59.498Z,16.80
2017-11-17T03:38:27.388Z,16.00
2017-11-17T03:40:55.834Z,16.10
2017-11-17T03:43:23.489Z,16.30
2017-11-17T03:45:51.217Z,16.20
2017-11-17T03:48:18.913Z,14.10
2017-11-17T03:50:46.572Z,14.37
2017-11-17T03:53:14.221Z,14.23
2017-11-17T03:55:41.888Z,12.77
2017-11-17T03:58:09.580Z,12.37
2017-11-17T04:00:37.280Z,11.90
2017-11-17T04:03:04.941Z,12.10
2017-11-17T04:05:32.588Z,12.13
2017-11-17T04:08:01.034Z,11.87
2017-11-17T04:10:28.688Z,11.27
2017-11-17T04:12:56.330Z,12.00
2017-11-17T04:15:24.044Z,13.10
2017-11-17T04:17:52.428Z,13.00
2017-11-17T04:20:20.880Z,12.83
2017-11-17T04:22:48.538Z,10.83
2017-11-17T04:25:16.153Z,11.53
2017-11-17T04:27:43.837Z,12.30
2017-11-17T04:30:11.491Z,13.57
2017-11-17T04:32:39.272Z,12.90
2017-11-17T04:35:06.929Z,12.57
2017-11-17T04:37:34.540Z,13.80
2017-11-17T04:40:02.238Z,11.73
2017-11-17T04:42:29.876Z,13.00
2017-11-17T04:44:57.530Z,11.43
2017-11-17T04:47:25.156Z,13.43
2017-11-17T04:49:53.649Z,17.60
2017-11-17T04:52:22.085Z,17.83
2017-11-17T04:54:49.722Z,19.00
2017-11-17T04:57:17.413Z,18.53
2017-11-17T04:59:45.053Z,18.83
2017-11-17T05:02:14.787Z,18.83
2017-11-17T05:04:42.467Z,19.80
2017-11-17T05:07:10.929Z,18.17
2017-11-17T05:09:38.565Z,19.97
2017-11-17T05:12:06.359Z,19.77
2017-11-17T05:14:34.813Z,19.17
2017-11-17T05:17:02.445Z,19.57
2017-11-17T05:19:30.105Z,20.20
2017-11-17T05:21:58.505Z,18.90
2017-11-17T05:24:26.183Z,23.13
2017-11-17T05:26:53.797Z,21.17
2017-11-17T05:29:22.226Z,21.33
2017-11-17T05:31:49.845Z,22.10
2017-11-17T05:34:17.463Z,21.33
2017-11-17T05:36:45.882Z,22.17
2017-11-17T05:39:13.513Z,21.73
2017-11-17T05:41:41.930Z,21.13
2017-11-17T05:44:09.545Z,22.23
2017-11-17T05:46:37.962Z,24.37
2017-11-17T05:49:05.598Z,23.70
2017-11-17T05:51:33.264Z,24.17
2017-11-17T05:54:00.897Z,22.83
2017-11-17T05:56:29.286Z,23.20
2017-11-17T05:58:56.924Z,23.93
2017-11-17T06:01:25.318Z,24.63
2017-11-17T06:03:52.992Z,22.40
2017-11-17T06:06:20.629Z,23.80
2017-11-17T06:08:49.138Z,22.13
2017-11-17T06:11:16.772Z,25.73
2017-11-17T06:13:45.155Z,23.20
2017-11-17T06:16:12.812Z,25.00
2017-11-17T06:18:41.225Z,23.93
2017-11-17T06:21:08.871Z,25.27
2017-11-17T06:23:36.505Z,22.50
2017-11-17T06:26:04.963Z,23.13
2017-11-17T06:28:32.582Z,25.40
2017-11-17T06:31:00.973Z,25.10
2017-11-17T06:33:28.623Z,26.77
2017-11-17T06:35:56.313Z,25.63
2017-11-17T06:38:23.965Z,25.27
2017-11-17T06:40:51.594Z,24.67
2017-11-17T06:43:19.301Z,27.40
2017-11-17T06:45:46.953Z,24.00
2017-11-17T06:48:14.585Z,25.07
2017-11-17T06:50:42.244Z,25.57
2017-11-17T06:53:09.877Z,23.80
2017-11-17T06:55:37.542Z,24.40
2017-11-17T06:58:05.732Z,24.90
2017-11-17T07:00:34.189Z,25.40
2017-11-17T07:03:01.823Z,25.37
2017-11-17T07:05:30.770Z,24.03
2017-11-17T07:07:58.629Z,26.67
2017-11-17T07:10:26.269Z,25.27
2017-11-17T07:12:53.934Z,25.23
2017-11-17T07:15:21.557Z,26.93
2017-11-17T07:17:49.219Z,25.70
2017-11-17T07:20:17.614Z,24.03
2017-11-17T07:22:46.093Z,25.40
2017-11-17T07:25:14.476Z,25.93
2017-11-17T07:27:42.080Z,26.33
2017-11-17T07:30:09.757Z,26.17
2017-11-17T07:32:37.385Z,23.37
2017-11-17T07:35:05.030Z,25.53
2017-11-17T07:37:32.658Z,23.90
2017-11-17T07:40:01.117Z,23.67
2017-11-17T07:42:28.740Z,23.40
2017-11-17T07:44:56.357Z,24.83
2017-11-17T07:47:24.786Z,26.13
2017-11-17T07:49:52.420Z,24.73
2017-11-17T07:52:20.057Z,27.20
2017-11-17T07:54:48.449Z,26.60
2017-11-17T07:57:16.129Z,27.13
2017-11-17T07:59:43.794Z,27.93
2017-11-17T08:02:11.413Z,24.77
2017-11-17T08:04:39.070Z,24.23
2017-11-17T08:07:07.449Z,25.27
2017-11-17T08:09:35.900Z,23.33
2017-11-17T08:12:03.580Z,24.83
2017-11-17T08:14:32.046Z,25.37
2017-11-17T08:19:59.435Z,26.10
2017-11-17T08:22:27.845Z,24.17
2017-11-17T08:24:55.472Z,23.40
2017-11-17T08:27:23.909Z,23.77
2017-11-17T08:29:51.540Z,23.27
2017-11-17T08:32:19.188Z,25.77
2017-11-17T08:34:46.851Z,24.57
2017-11-17T08:37:14.498Z,24.97
2017-11-17T08:39:42.922Z,25.20
2017-11-17T08:42:10.597Z,23.97
2017-11-17T08:44:38.258Z,27.03
2017-11-17T08:47:05.888Z,24.97
2017-11-17T08:49:33.568Z,29.90
2017-11-17T08:52:01.205Z,27.60
2017-11-17T08:54:28.888Z,29.20
2017-11-17T08:56:56.580Z,28.03
2017-11-17T08:59:24.249Z,28.13
2017-11-17T09:01:52.641Z,26.30
2017-11-17T09:04:20.281Z,27.90
2017-11-17T09:06:47.942Z,28.47
2017-11-17T09:09:16.364Z,26.10
2017-11-17T09:11:44.017Z,27.13
2017-11-17T09:14:11.645Z,27.93
2017-11-17T09:16:40.078Z,24.87
2017-11-17T09:19:07.691Z,25.43
2017-11-17T09:21:36.058Z,28.13
2017-11-17T09:24:04.502Z,25.80
2017-11-17T09:26:32.126Z,27.10
2017-11-17T09:28:59.797Z,24.83
2017-11-17T09:31:27.420Z,28.07
2017-11-17T09:33:55.851Z,26.80
2017-11-17T09:36:23.493Z,24.77
2017-11-17T09:38:51.205Z,25.60
2017-11-17T09:41:18.842Z,26.80
2017-11-17T09:43:46.498Z,23.33
2017-11-17T09:46:14.141Z,26.73
2017-11-17T09:48:41.851Z,25.93
2017-11-17T09:51:10.248Z,26.70
2017-11-17T09:53:38.685Z,24.90
2017-11-17T09:56:06.343Z,23.97
2017-11-17T09:58:34.013Z,25.37
2017-11-17T10:01:01.754Z,24.00
2017-11-17T10:03:29.420Z,25.53
2017-11-17T10:05:57.157Z,26.57
2017-11-17T10:08:24.786Z,24.77
2017-11-17T10:10:53.266Z,24.40
2017-11-17T10:13:21.690Z,23.60
2017-11-17T10:15:49.378Z,23.60
2017-11-17T10:18:17.041Z,24.37
2017-11-17T10:20:44.720Z,24.67
2017-11-17T10:23:13.146Z,25.83
2017-11-17T10:25:40.814Z,24.20
2017-11-17T10:28:08.512Z,26.20
2017-11-17T10:30:36.931Z,25.80
2017-11-17T10:33:04.773Z,26.80
2017-11-17T10:35:32.413Z,28.67
2017-11-17T10:38:00.851Z,25.87
2017-11-17T10:40:28.612Z,26.77
2017-11-17T10:42:56.246Z,28.00
2017-11-17T10:45:23.964Z,27.23
2017-11-17T10:47:51.614Z,26.20
2017-11-17T10:50:19.251Z,28.37
2017-11-17T10:52:46.925Z,25.90
2017-11-17T10:55:14.609Z,27.13
2017-11-17T10:57:43.191Z,26.17
2017-11-17T11:00:10.865Z,22.40
2017-11-17T11:02:39.297Z,25.60
2017-11-17T11:05:06.938Z,23.90
2017-11-17T11:07:34.616Z,25.57
2017-11-17T11:10:04.158Z,27.00
2017-11-17T11:12:32.630Z,27.40
2017-11-17T11:15:00.268Z,26.77
2017-11-17T11:17:27.937Z,23.70
2017-11-17T11:19:55.611Z,25.63
2017-11-17T11:22:23.269Z,24.30
2017-11-17T11:24:50.955Z,24.50
2017-11-17T11:27:18.617Z,22.80
2017-11-17T11:29:47.060Z,24.13
2017-11-17T11:32:14.688Z,24.83
2017-11-17T11:34:42.365Z,24.63
2017-11-17T11:37:10.024Z,23.77
2017-11-17T11:39:37.646Z,25.93
2017-11-17T11:42:05.324Z,26.20
2017-11-17T11:44:33.013Z,26.47
2017-11-17T11:47:00.713Z,24.57
2017-11-17T11:49:29.118Z,26.30
2017-11-17T11:51:56.908Z,25.90
2017-11-17T11:54:24.569Z,25.37
2017-11-17T11:56:52.336Z,23.77
2017-11-17T11:59:20.017Z,26.43
2017-11-17T12:01:47.729Z,27.23
2017-11-17T12:04:15.342Z,25.33
2017-11-17T12:06:43.009Z,22.27
2017-11-17T12:09:11.482Z,25.60
2017-11-17T12:11:39.873Z,26.80
2017-11-17T12:14:08.336Z,23.87
2017-11-17T12:16:35.980Z,26.67
2017-11-17T12:19:03.746Z,27.80
2017-11-17T12:21:31.357Z,27.50
2017-11-17T12:23:58.976Z,26.27
2017-11-17T12:26:26.622Z,28.23
2017-11-17T12:28:54.269Z,27.20
2017-11-17T12:31:21.933Z,26.43
2017-11-17T12:33:49.578Z,27.73
2017-11-17T12:36:17.997Z,26.20
2017-11-17T12:38:45.631Z,26.30
2017-11-17T12:41:13.288Z,23.10
2017-11-17T12:43:40.962Z,25.80
2017-11-17T12:46:08.580Z,25.67
2017-11-17T12:48:36.268Z,26.10
2017-11-17T12:51:03.881Z,25.17
2017-11-17T12:53:31.521Z,24.80
2017-11-17T12:55:59.940Z,25.23
2017-11-17T12:58:27.564Z,26.20
2017-11-17T13:00:55.985Z,24.40
2017-11-17T13:03:23.606Z,27.43
2017-11-17T13:05:52.065Z,25.23
2017-11-17T13:08:19.698Z,26.87
2017-11-17T13:10:47.325Z,23.83
2017-11-17T13:13:14.981Z,26.07
2017-11-17T13:15:42.588Z,24.10
2017-11-17T13:18:10.236Z,25.20
2017-11-17T13:20:37.892Z,27.47
2017-11-17T13:23:05.593Z,24.90
2017-11-17T13:25:33.238Z,24.83
2017-11-17T13:28:00.871Z,25.33
2017-11-17T13:30:28.522Z,25.10
2017-11-17T13:32:56.169Z,26.67
2017-11-17T13:35:23.806Z,24.20
2017-11-17T13:37:52.185Z,23.43
2017-11-17T13:40:19.889Z,24.80
2017-11-17T13:42:47.506Z,25.37
2017-11-17T13:45:15.896Z,26.87
2017-11-17T13:47:43.544Z,23.13
2017-11-17T13:50:11.160Z,24.83
2017-11-17T13:52:38.817Z,22.47
2017-11-17T13:55:06.433Z,25.83
2017-11-17T13:57:34.119Z,24.93
2017-11-17T14:00:01.791Z,27.37
2017-11-17T14:02:29.518Z,26.50
2017-11-17T14:04:57.175Z,25.57
2017-11-17T14:07:24.809Z,25.00
2017-11-17T14:09:53.273Z,24.40
2017-11-17T14:12:21.702Z,26.17
2017-11-17T14:14:50.268Z,24.10
2017-11-17T14:17:17.952Z,25.80
2017-11-17T14:19:45.588Z,26.00
2017-11-17T14:22:13.249Z,25.20
2017-11-17T14:24:40.866Z,26.50
2017-11-17T14:27:08.540Z,23.67
2017-11-17T14:29:36.193Z,26.13
2017-11-17T14:32:03.901Z,25.57
2017-11-17T14:34:31.565Z,24.40
2017-11-17T14:36:59.225Z,26.70
2017-11-17T14:39:26.926Z,24.43
2017-11-17T14:41:54.550Z,24.60
2017-11-17T14:44:22.200Z,24.93
2017-11-17T14:46:49.814Z,24.50
2017-11-17T14:49:17.471Z,25.97
2017-11-17T14:51:45.089Z,24.73
2017-11-17T14:54:12.728Z,25.13
2017-11-17T14:56:40.353Z,24.63
2017-11-17T14:59:08.014Z,24.07
2017-11-17T15:01:35.700Z,25.70
2017-11-17T15:04:03.400Z,24.03
2017-11-17T15:06:31.825Z,27.67
2017-11-17T15:09:00.273Z,25.03
2017-11-17T15:11:27.948Z,24.73
2017-11-17T15:13:55.673Z,23.67
2017-11-17T15:16:23.348Z,23.83
2017-11-17T15:18:51.018Z,23.13
2017-11-17T15:21:18.678Z,27.20
2017-11-17T15:23:46.364Z,23.67
2017-11-17T15:26:14.122Z,22.80
2017-11-17T15:28:41.809Z,24.23
2017-11-17T15:31:10.234Z,25.53
2017-11-17T15:33:37.921Z,27.10
2017-11-17T15:36:05.625Z,24.70
2017-11-17T15:38:33.336Z,26.47
2017-11-17T15:41:01.074Z,25.80
2017-11-17T15:43:28.765Z,25.00
2017-11-17T15:45:56.472Z,24.40
2017-11-17T15:48:24.157Z,22.90
2017-11-17T15:50:51.893Z,24.17
2017-11-17T15:53:19.532Z,25.40
2017-11-17T15:55:47.974Z,25.20
2017-11-17T15:58:15.693Z,24.77
2017-11-17T16:00:43.398Z,24.07
2017-11-17T16:03:12.238Z,24.30
2017-11-17T16:05:40.825Z,26.30
2017-11-17T16:08:09.356Z,24.30
2017-11-17T16:10:37.809Z,24.40
2017-11-17T16:13:05.468Z,27.10
2017-11-17T16:15:33.180Z,26.77
2017-11-17T16:18:01.586Z,28.33
2017-11-17T16:20:29.295Z,26.93
2017-11-17T16:22:56.960Z,27.70
2017-11-17T16:25:24.706Z,27.77
2017-11-17T16:27:52.390Z,28.97
2017-11-17T16:30:21.153Z,29.50
2017-11-17T16:32:48.861Z,27.27
2017-11-17T16:35:16.593Z,26.80
2017-11-17T16:37:45.068Z,26.67
2017-11-17T16:40:12.780Z,25.80
2017-11-17T16:42:40.483Z,27.70
2017-11-17T16:45:08.170Z,26.60
2017-11-17T16:47:36.645Z,23.97
2017-11-17T16:50:05.133Z,24.10
2017-11-17T16:52:33.560Z,23.37
2017-11-17T16:55:01.238Z,23.20
2017-11-17T16:57:28.909Z,23.50
2017-11-17T16:59:56.599Z,24.33
2017-11-17T17:02:24.256Z,24.73
2017-11-17T17:04:51.965Z,23.87
2017-11-17T17:07:19.694Z,24.10
2017-11-17T17:09:47.393Z,23.53
2017-11-17T17:12:15.117Z,23.60
2017-11-17T17:14:42.837Z,26.00
2017-11-17T17:17:10.539Z,24.57
2017-11-17T17:19:38.203Z,23.40
2017-11-17T17:22:05.870Z,24.17
2017-11-17T17:24:33.621Z,26.40
2017-11-17T17:27:01.281Z,24.60
2017-11-17T17:29:29.043Z,23.00
2017-11-17T17:31:57.863Z,23.40
2017-11-17T17:34:25.582Z,24.00
2017-11-17T17:36:53.993Z,24.23
2017-11-17T17:39:21.979Z,21.67
2017-11-17T17:41:49.601Z,22.90
2017-11-17T17:44:17.291Z,22.27
2017-11-17T17:46:44.989Z,23.27
2017-11-17T17:51:42.501Z,23.67
2017-11-17T17:54:10.180Z,24.73
2017-11-17T17:56:38.825Z,23.93
2017-11-17T17:59:06.548Z,24.87
2017-11-17T18:01:34.296Z,25.87
2017-11-17T18:04:01.987Z,22.20
2017-11-17T18:06:30.505Z,24.00
2017-11-17T18:08:58.280Z,22.67
2017-11-17T18:11:26.109Z,25.10
2017-11-17T18:13:53.796Z,25.53
2017-11-17T18:16:21.453Z,37.03
2017-11-17T18:18:49.160Z,31.13
2017-11-17T18:21:16.812Z,25.40
2017-11-17T18:23:44.492Z,22.93
2017-11-17T18:26:12.225Z,24.60
2017-11-17T18:28:40.645Z,23.93
2017-11-17T18:31:09.159Z,24.23
2017-11-17T18:33:36.808Z,24.97
2017-11-17T18:36:04.474Z,25.60
2017-11-17T18:38:32.173Z,25.33
2017-11-17T18:40:59.892Z,22.40
2017-11-17T18:43:27.520Z,24.40
2017-11-17T18:45:55.187Z,20.67
2017-11-17T18:48:22.860Z,22.50
2017-11-17T18:50:51.317Z,25.27
2017-11-17T18:53:19.020Z,25.40
2017-11-17T18:55:46.679Z,23.67
2017-11-17T18:58:14.411Z,25.50
2017-11-17T19:00:42.072Z,24.07
2017-11-17T19:03:10.536Z,22.20
2017-11-17T19:05:38.339Z,22.70
2017-11-17T19:08:06.732Z,21.83
2017-11-17T19:10:35.165Z,23.13
2017-11-17T19:13:03.563Z,23.97
2017-11-17T19:15:31.362Z,22.33
2017-11-17T19:17:59.765Z,22.13
2017-11-17T19:20:27.404Z,23.13
2017-11-17T19:22:55.083Z,25.33
2017-11-17T19:25:22.849Z,22.00
2017-11-17T19:27:50.582Z,22.77
2017-11-17T19:30:18.236Z,23.83
2017-11-17T19:32:45.869Z,22.63
2017-11-17T19:35:13.576Z,22.53
2017-11-17T19:37:41.237Z,19.57
2017-11-17T19:40:08.901Z,23.27
2017-11-17T19:42:36.548Z,23.70
2017-11-17T19:45:04.253Z,24.13
2017-11-17T19:47:31.915Z,25.13
2017-11-17T19:50:00.300Z,21.40
2017-11-17T19:52:27.973Z,24.20
2017-11-17T19:54:55.748Z,23.20
2017-11-17T19:57:23.414Z,22.00
2017-11-17T19:59:51.089Z,22.73
2017-11-17T20:02:18.820Z,24.07
2017-11-17T20:04:46.445Z,22.07
2017-11-17T20:07:14.075Z,21.80
2017-11-17T20:09:41.778Z,22.67
2017-11-17T20:12:10.213Z,24.87
2017-11-17T20:14:37.883Z,22.50
2017-11-17T20:17:05.519Z,23.07
2017-11-17T20:19:33.212Z,23.43
2017-11-17T20:22:00.848Z,23.20
2017-11-17T20:24:28.506Z,21.87
2017-11-17T20:26:56.184Z,24.07
2017-11-17T20:29:23.885Z,23.40
2017-11-17T20:31:52.269Z,24.57
2017-11-17T20:34:20.661Z,25.90
2017-11-17T20:36:48.317Z,26.20
2017-11-17T20:39:16.015Z,23.17
2017-11-17T20:41:43.698Z,24.87
2017-11-17T20:44:11.334Z,22.50
2017-11-17T20:46:39.001Z,25.30
2017-11-17T20:49:06.642Z,23.80
2017-11-17T20:51:34.321Z,22.60
2017-11-17T20:54:02.008Z,24.60
2017-11-17T20:56:29.741Z,21.10
2017-11-17T20:58:57.423Z,24.03
2017-11-17T21:01:25.093Z,24.80
2017-11-17T21:03:53.531Z,26.30
2017-11-17T21:06:21.238Z,22.63
2017-11-17T21:08:49.669Z,22.57
2017-11-17T21:11:17.311Z,23.20
2017-11-17T21:13:44.970Z,22.67
2017-11-17T21:16:12.593Z,22.97
2017-11-17T21:18:41.038Z,24.13
2017-11-17T21:21:08.714Z,24.70
2017-11-17T21:23:36.384Z,23.13
2017-11-17T21:26:04.017Z,22.53
2017-11-17T21:28:31.669Z,22.23
2017-11-17T21:30:59.321Z,26.00
2017-11-17T21:33:26.941Z,22.33
2017-11-17T21:35:55.382Z,25.47
2017-11-17T21:38:23.016Z,22.90
2017-11-17T21:40:50.720Z,23.90
2017-11-17T21:43:18.364Z,24.20
2017-11-17T21:45:45.984Z,23.83
2017-11-17T21:48:13.727Z,26.77
2017-11-17T21:50:42.157Z,26.13
2017-11-17T21:53:09.846Z,26.00
2017-11-17T21:55:38.356Z,25.47
2017-11-17T21:58:06.058Z,25.07
2017-11-17T22:00:33.696Z,24.73
2017-11-17T22:03:01.382Z,24.73
2017-11-17T22:05:29.957Z,23.40
2017-11-17T22:07:58.091Z,21.20
2017-11-17T22:10:25.829Z,24.27
2017-11-17T22:12:54.505Z,23.50
2017-11-17T22:15:22.437Z,25.23
2017-11-17T22:17:50.158Z,22.97
2017-11-17T22:20:17.900Z,23.60
2017-11-17T22:22:47.327Z,24.53
2017-11-17T22:25:15.021Z,25.83
2017-11-17T22:27:42.842Z,24.27
2017-11-17T22:30:10.740Z,24.57
2017-11-17T22:32:38.541Z,22.37
2017-11-17T22:35:06.566Z,22.80
2017-11-17T22:37:34.371Z,23.83
2017-11-17T22:40:02.228Z,22.27
2017-11-17T22:42:30.033Z,25.97
2017-11-17T22:44:57.810Z,24.27
2017-11-17T22:47:25.481Z,25.23
2017-11-17T22:49:53.113Z,22.43
2017-11-17T22:52:21.561Z,25.83
2017-11-17T22:54:49.322Z,23.50
2017-11-17T22:57:17.205Z,24.10
2017-11-17T22:59:45.636Z,23.20
2017-11-17T23:02:13.370Z,26.30
2017-11-17T23:04:41.008Z,22.20
2017-11-17T23:07:09.952Z,25.20
2017-11-17T23:09:37.662Z,26.13
2017-11-17T23:12:06.099Z,26.30
2017-11-17T23:14:33.761Z,24.90
2017-11-17T23:17:01.404Z,23.67
2017-11-17T23:19:29.130Z,26.17
2017-11-17T23:21:57.539Z,24.77
2017-11-17T23:24:25.226Z,24.63
2017-11-17T23:26:52.856Z,43.87
2017-11-17T23:29:20.475Z,31.00
2017-11-17T23:31:48.152Z,23.37
2017-11-17T23:34:15.869Z,26.37
2017-11-17T23:36:43.547Z,23.97
2017-11-17T23:39:11.228Z,22.83
2017-11-17T23:41:39.728Z,24.10
2017-11-17T23:44:07.373Z,23.27
2017-11-17T23:46:35.080Z,22.00
2017-11-17T23:49:02.789Z,25.40
2017-11-17T23:51:31.292Z,24.23
2017-11-17T23:53:58.965Z,25.47
2017-11-17T23:56:26.627Z,24.90
2017-11-17T23:58:54.244Z,22.80
